• Join FlightAware (Why Join?)
  • Login
  • US Flag 
Trick or treat! (Boo!!) 
01:21PM EDT


 

Airport Tracker/Info


-or-


 

Live Flight TrackerFlight Track Log ✈ N934DL ✈ 19-Apr-2013 ✈ KDTW - KBWI

Flight Track Log - Related Links

Times and Time Zones

All times are in EDT time to prevent confusion due to time zone crossing. See the N934DL flight status page for this flight to view local times or setup timezone preferences in your user account.

Time Position Orientation Groundspeed Altitude Reporting Facility
EDT Latitude Longitude Course Direction KTS MPH feet Rate Location/Type
10:55AM 42.2081 -83.3508 98° East 149 171 1,300  Level FAA TRACON SMA TRACON (SMA)
10:56AM 42.1958 -83.3556 196° South 177 204 1,900 2,100 Climbing FAA TRACON SMA TRACON (SMA)
10:56AM 42.1761 -83.3592 188° South 202 232 2,700 2,100 Climbing FAA TRACON SMA TRACON (SMA)
10:56AM 42.1578 -83.3628 188° South 230 265 3,300 2,880 Climbing FAA TRACON SMA TRACON (SMA)
10:57AM 42.1339 -83.3675 188° South 238 274 4,600 3,480 Climbing FAA TRACON SMA TRACON (SMA)
10:57AM 42.1147 -83.3706 187° South 242 278 5,600 4,020 Climbing FAA TRACON SMA TRACON (SMA)
10:57AM 42.0906 -83.3708 180° South 232 267 7,300 4,020 Climbing FAA TRACON SMA TRACON (SMA)
10:58AM 42.1446 -82.9176 98° East  Level FlightAware Approximate
10:58AM 42.0769 -83.3644 161° South 233 268 8,300  Level FAA TRACON SMA TRACON (SMA)
10:58AM 42.0614 -83.3219 116° Southeast 290 334 9,500 2,400 Climbing FAA TRACON SMA TRACON (SMA)
10:58AM 42.0564 -83.2889 102° East 308 354 9,900 720 Climbing FAA TRACON SMA TRACON (SMA)
10:59AM 42.1225 -82.7731 109° East  Level FlightAware Approximate
10:59AM 42.0564 -83.2519 90° East 329 379 10,000  Level FAA TRACON SMA TRACON (SMA)
10:59AM 42.0581 -83.2017 87° East 363 418 10,100 120 Climbing FAA TRACON SMA TRACON (SMA)
10:59AM 42.0597 -83.1572 87° East 399 459 10,100 900 Level FAA TRACON SMA TRACON (SMA)
11:00AM 42.1031 -82.6279 98° East  Level FlightAware Approximate
11:00AM 42.0614 -83.1103 87° East 411 473 10,700  Level FAA TRACON SMA TRACON (SMA)
11:00AM 42.0644 -83.0536 86° East 416 479 11,700 2,580 Climbing FAA TRACON SMA TRACON (SMA)
11:00AM 42.0667 -83.0014 87° East 424 488 12,500 2,520 Climbing FAA TRACON SMA TRACON (SMA)
11:01AM 42.0689 -82.9394 87° East 431 496 13,400 2,400 Climbing FAA TRACON SMA TRACON (SMA)
11:01AM 42.0708 -82.8919 87° East 440 506 14,100 2,220 Climbing FAA TRACON SMA TRACON (SMA)
11:01AM 42.0733 -82.8364 87° East 449 517 14,900 2,400 Climbing FAA TRACON SMA TRACON (SMA)
11:02AM 42.0761 -82.7706 87° East 468 539 15,700 1,680 Climbing FAA TRACON SMA TRACON (SMA)
11:02AM 42.0789 -82.7242 85° East 466 536 16,000 420 Climbing FAA TRACON SMA TRACON (SMA)
11:02AM 42.0803 -82.6628 88° East 469 540 16,000 420 Level FAA TRACON SMA TRACON (SMA)
11:03AM 42.0825 -82.5950 87° East 471 542 16,300 1,560 Climbing FAA TRACON SMA TRACON (SMA)
11:03AM 42.0844 -82.5406 87° East 472 543 17,100 2,100 Climbing FAA TRACON SMA TRACON (SMA)
11:03AM 42.0847 -82.4864 90° East 473 544 17,700 2,520 Climbing FAA TRACON SMA TRACON (SMA)
11:04AM 42.0769 -82.4194 99° East 470 541 18,800 2,520 Climbing FAA TRACON SMA TRACON (SMA)
11:04AM 42.0700 -82.3658 100° East 472 543 19,400 1,620 Climbing FAA TRACON SMA TRACON (SMA)
11:04AM 42.0622 -82.3119 101° East 475 547 19,900 2,100 Climbing FAA TRACON SMA TRACON (SMA)
11:05AM 42.0525 -82.2439 101° East 479 551 20,800 2,220 Climbing FAA TRACON SMA TRACON (SMA)
11:05AM 42.0442 -82.1894 102° East 480 552 21,400 600 Climbing FAA TRACON SMA TRACON (SMA)
11:06AM 42.0442 -82.1894 225° Southwest 480 552 21,400 900 Level FAA TRACON SMA TRACON (SMA)
11:07AM 41.9183 -81.9700 128° Southeast 431 496 23,000 1,440 Climbing Cleveland Center
11:08AM 41.8358 -81.8903 144° Southeast 419 482 24,400 1,560 Climbing Cleveland Center
11:09AM 41.7431 -81.8019 145° Southeast 419 482 26,100 1,860 Climbing Cleveland Center
11:10AM 41.6522 -81.7142 144° Southeast 413 475 28,200 1,800 Climbing Cleveland Center
11:11AM 41.5633 -81.6294 144° Southeast 402 463 29,700 1,380 Climbing Cleveland Center
11:12AM 41.4661 -81.5364 144° Southeast 396 456 31,000 600 Climbing Cleveland Center
11:13AM 41.3814 -81.4547 144° Southeast 396 456 31,000  Level Cleveland Center
11:14AM 41.2944 -81.3708 144° Southeast 391 450 31,000  Level Cleveland Center
11:15AM 41.2072 -81.2897 145° Southeast 386 444 31,000  Level Cleveland Center
11:16AM 41.1203 -81.2061 144° Southeast 386 444 31,000  Level Cleveland Center
11:17AM 41.0414 -81.1336 145° Southeast 386 444 31,000  Level Cleveland Center
11:18AM 40.9500 -81.0478 145° Southeast 391 450 31,000  Level Cleveland Center
11:19AM 40.8650 -80.9675 144° Southeast 391 450 31,000  Level Cleveland Center
11:20AM 40.7756 -80.8819 144° Southeast 391 450 31,000  Level Cleveland Center
11:21AM 40.6861 -80.7994 145° Southeast 391 450 31,000  Level Cleveland Center
11:22AM 40.5944 -80.7172 146° Southeast 400 460 31,000  Level Cleveland Center
11:23AM 40.4967 -80.6267 145° Southeast 400 460 31,000  Level Cleveland Center
11:24AM 40.4092 -80.5422 144° Southeast 400 460 31,000  Level Cleveland Center
11:25AM 40.3153 -80.4550 145° Southeast 405 466 31,000  Level Cleveland Center
11:26AM 40.2253 -80.3736 145° Southeast 405 466 31,000  Level Cleveland Center
11:27AM 40.1314 -80.2897 146° Southeast 405 466 31,000  Level Cleveland Center
11:28AM 40.0394 -80.2061 145° Southeast 405 466 31,000  Level Cleveland Center
11:29AM 39.9847 -80.0656 117° Southeast 394 453 31,100  Climbing Cleveland Center
11:30AM 39.8881 -79.8047 116° Southeast 470 541 31,000 -60 Descending Washington Center
11:31AM 39.8389 -79.6558 113° Southeast 458 527 31,000 -300 Level Washington Center
11:32AM 39.7919 -79.5019 112° Southeast 453 521 30,500 -1,500 Descending Washington Center
11:33AM 39.7450 -79.3456 111° Southeast 453 521 28,000 -2,460 Descending Washington Center
11:34AM 39.6933 -79.1944 114° Southeast 458 527 25,600 -2,100 Descending Washington Center
11:35AM 39.6500 -79.0333 109° East 463 533 23,900 -1,620 Descending Washington Center
11:36AM 39.6128 -78.8697 106° East 463 533 22,400 -1,320 Descending Washington Center
11:37AM 39.5794 -78.7122 105° East 463 533 21,300 -1,140 Descending Washington Center
11:38AM 39.5439 -78.5572 107° East 457 526 20,200 -1,740 Descending Washington Center
11:39AM 39.5119 -78.4133 106° East 441 507 17,900 -2,160 Descending Washington Center
11:40AM 39.4817 -78.2778 106° East 415 478 15,900 -1,500 Descending Washington Center
11:41AM 39.4514 -78.1422 106° East 396 456 15,000 -480 Descending Washington Center
11:42AM 39.4439 -77.9967 94° East 391 450 15,000 -60 Level Washington Center
11:43AM 39.4425 -77.8542 91° East 397 457 14,900 -600 Descending Washington Center
11:44AM 39.4408 -77.7092 91° East 397 457 13,900 -1,200 Descending Washington Center
11:45AM 39.4433 -77.5642 89° East 397 457 12,500 -1,080 Descending Washington Center
11:46AM 39.4431 -77.4511 90° East 385 443 11,800 -1,080 Descending Washington Center
11:47AM 39.4469 -77.3303 88° East 354 407 10,400 -1,380 Descending Washington Center
11:48AM 39.4667 -77.2500 72° East 329 379 9,600 -900 Descending Potomac TRACON
11:49AM 39.4500 -77.1500 102° East 315 362 9,000 -780 Descending Potomac TRACON
11:50AM 39.4000 -77.0833 134° Southeast 284 327 8,200 -1,500 Descending Potomac TRACON
11:51AM 39.3500 -77.0333 142° Southeast 255 293 6,300 -2,340 Descending Potomac TRACON
11:52AM 39.2833 -76.9833 150° Southeast 246 283 3,800 -1,680 Descending Potomac TRACON
11:53AM 39.2333 -76.9333 142° Southeast 219 252 3,000 -540 Descending Potomac TRACON
11:54AM 39.1833 -76.9000 153° Southeast 203 234 2,800 -240 Descending Potomac TRACON